Time;durP1;ratioP1;P1;durP2;ratioP2;P2;SDS_P1;SDS_P2;PMS_P1;PMS_P2;Temp;Humidity;BMP_temperature;BMP_pressure;BME280_temperature;BME280_humidity;BME280_pressure;Samples;Min_cycle;Max_cycle;Signal;HPM_P1;HPM_P2
2020/12/06 00:01:51;;;;;;;27.40;17.48;;;1.70;91.00;;;;;;5017488;28;20482;-51
2020/12/06 00:04:37;;;;;;;25.98;16.83;;;1.60;91.20;;;;;;5011364;28;20096;-53
2020/12/06 00:07:23;;;;;;;26.75;16.65;;;1.60;91.60;;;;;;5009206;28;20414;-51
2020/12/06 00:09:48;;;;;;;27.70;17.70;;;1.60;91.60;;;;;;5026430;28;20048;-52
2020/12/06 00:12:35;;;;;;;28.27;16.88;;;1.60;91.60;;;;;;5007674;28;20082;-51
2020/12/06 00:15:02;;;;;;;25.60;16.92;;;1.60;91.80;;;;;;5027104;28;20038;-50
2020/12/06 00:17:28;;;;;;;26.00;17.45;;;1.60;91.80;;;;;;5014791;28;20124;-51
2020/12/06 00:20:13;;;;;;;25.95;17.05;;;1.60;91.80;;;;;;4999865;28;20050;-51
2020/12/06 00:22:39;;;;;;;25.77;16.95;;;1.50;91.80;;;;;;5026012;28;20052;-51
2020/12/06 00:25:05;;;;;;;25.88;15.88;;;1.50;91.90;;;;;;5026399;28;20038;-52
2020/12/06 00:27:35;;;;;;;25.15;16.45;;;1.50;92.00;;;;;;5018022;28;20034;-52
2020/12/06 00:30:03;;;;;;;24.45;15.93;;;1.50;92.00;;;;;;5021984;28;20037;-51
2020/12/06 00:32:29;;;;;;;28.25;16.35;;;1.50;92.00;;;;;;5014952;28;20038;-52
2020/12/06 00:34:54;;;;;;;27.13;16.50;;;1.60;92.00;;;;;;5023114;28;20048;-52
2020/12/06 00:37:20;;;;;;;26.42;16.55;;;1.60;92.00;;;;;;5018695;28;20033;-51
2020/12/06 00:39:45;;;;;;;25.90;16.27;;;1.70;92.10;;;;;;5033215;28;20069;-52
2020/12/06 00:42:11;;;;;;;28.77;16.40;;;1.70;92.00;;;;;;5019483;28;20042;-53
2020/12/06 00:44:37;;;;;;;25.20;15.38;;;1.80;91.80;;;;;;5030883;28;20410;-52
2020/12/06 00:47:03;;;;;;;26.45;16.98;;;1.70;91.70;;;;;;5029775;28;20045;-52
2020/12/06 00:49:49;;;;;;;25.63;16.08;;;1.70;91.80;;;;;;5012150;28;20486;-52
2020/12/06 00:52:14;;;;;;;25.00;16.27;;;1.70;91.80;;;;;;5023778;28;20033;-52
2020/12/06 00:55:00;;;;;;;23.63;15.82;;;1.60;91.80;;;;;;5016505;28;20050;-52
2020/12/06 00:57:46;;;;;;;22.83;15.32;;;1.80;91.90;;;;;;5012438;28;20417;-51
2020/12/06 01:00:13;;;;;;;26.23;17.00;;;1.80;91.60;;;;;;5005353;28;20034;-51
2020/12/06 01:02:58;;;;;;;24.05;15.55;;;1.70;91.70;;;;;;5010973;28;20050;-52
2020/12/06 01:05:44;;;;;;;28.05;17.10;;;1.80;91.50;;;;;;5007852;28;20081;-52
2020/12/06 01:08:09;;;;;;;22.10;14.95;;;1.90;91.50;;;;;;5026506;28;20083;-50
2020/12/06 01:10:36;;;;;;;25.30;16.15;;;1.90;91.30;;;;;;5021178;28;20435;-52
2020/12/06 01:13:22;;;;;;;25.10;16.75;;;1.90;91.30;;;;;;4999180;28;20136;-53
2020/12/06 01:15:47;;;;;;;28.95;14.88;;;1.90;91.20;;;;;;5017476;28;20124;-52
2020/12/06 01:18:33;;;;;;;24.25;16.27;;;1.90;91.40;;;;;;5000835;28;20042;-52
2020/12/06 01:20:58;;;;;;;24.77;16.27;;;2.00;91.30;;;;;;5031911;28;20116;-52
2020/12/06 01:23:44;;;;;;;29.85;16.67;;;1.90;91.40;;;;;;5011961;28;20042;-51
2020/12/06 01:26:11;;;;;;;25.75;16.88;;;1.80;91.50;;;;;;5022888;28;20052;-52
2020/12/06 01:28:37;;;;;;;25.48;16.48;;;1.80;91.50;;;;;;5019096;28;20041;-52
2020/12/06 01:31:02;;;;;;;27.23;16.73;;;1.80;91.50;;;;;;5022208;28;20063;-53
2020/12/06 01:33:28;;;;;;;26.30;17.10;;;1.80;91.60;;;;;;5024855;28;20095;-52
2020/12/06 01:35:53;;;;;;;26.42;16.88;;;1.80;91.50;;;;;;5030428;28;20506;-52
2020/12/06 01:38:19;;;;;;;25.88;15.88;;;1.80;91.40;;;;;;5026119;28;20547;-51
2020/12/06 01:41:05;;;;;;;25.70;15.75;;;1.70;91.40;;;;;;5003063;28;20045;-52
2020/12/06 01:43:30;;;;;;;29.02;17.52;;;1.70;91.50;;;;;;5021230;28;20128;-51
2020/12/06 01:46:16;;;;;;;28.33;17.23;;;1.70;91.60;;;;;;5015036;28;20525;-52
2020/12/06 01:48:41;;;;;;;26.83;16.77;;;1.70;91.50;;;;;;5023327;28;20077;-52
2020/12/06 01:51:07;;;;;;;28.88;16.88;;;1.70;91.60;;;;;;5016007;28;20054;-52
2020/12/06 01:53:53;;;;;;;26.77;17.15;;;1.80;91.60;;;;;;5001875;28;20084;-50
2020/12/06 01:56:38;;;;;;;25.75;17.00;;;1.80;91.50;;;;;;5007822;28;20041;-52
2020/12/06 01:59:04;;;;;;;27.63;16.95;;;1.80;91.40;;;;;;5005987;28;20029;-52
2020/12/06 02:02:01;;;;;;;27.30;16.95;;;1.70;91.50;;;;;;4997944;28;20053;-52
2020/12/06 02:04:29;;;;;;;28.30;17.63;;;1.70;91.60;;;;;;5021223;28;20033;-52
2020/12/06 02:06:55;;;;;;;27.35;16.85;;;1.60;91.60;;;;;;5025367;28;20033;-52
2020/12/06 02:09:44;;;;;;;27.98;17.13;;;1.50;91.70;;;;;;5011724;28;20114;-51
2020/12/06 02:12:09;;;;;;;27.33;17.10;;;1.50;91.90;;;;;;5028231;28;20045;-50
2020/12/06 02:14:36;;;;;;;29.48;17.63;;;1.50;91.90;;;;;;5018292;28;20050;-52
2020/12/06 02:17:21;;;;;;;26.88;17.52;;;1.40;91.90;;;;;;4996819;28;20557;-53
2020/12/06 02:19:47;;;;;;;28.10;17.08;;;1.40;92.00;;;;;;5003199;28;20038;-52
2020/12/06 02:22:32;;;;;;;28.13;17.08;;;1.40;91.90;;;;;;5000023;28;20052;-51
2020/12/06 02:24:58;;;;;;;29.65;18.38;;;1.40;91.90;;;;;;5024997;28;20413;-52
2020/12/06 02:27:24;;;;;;;29.02;17.77;;;1.40;92.00;;;;;;5019104;28;20121;-52
2020/12/06 02:29:49;;;;;;;30.95;18.20;;;1.40;91.90;;;;;;5018806;28;20068;-49
2020/12/06 02:32:15;;;;;;;27.73;18.08;;;1.40;92.00;;;;;;5021484;28;20045;-50
2020/12/06 02:34:41;;;;;;;28.20;17.27;;;1.40;91.90;;;;;;5019653;28;20046;-52
2020/12/06 02:37:06;;;;;;;31.50;19.52;;;1.40;92.00;;;;;;5023999;28;20117;-52
2020/12/06 02:39:32;;;;;;;31.38;18.83;;;1.50;91.80;;;;;;5014792;28;20052;-53
2020/12/06 02:41:58;;;;;;;28.35;18.23;;;1.50;91.90;;;;;;5024710;28;20120;-53
2020/12/06 02:44:23;;;;;;;28.73;17.88;;;1.40;91.90;;;;;;5027177;28;20045;-49
2020/12/06 02:46:49;;;;;;;30.20;17.90;;;1.40;92.10;;;;;;5023628;28;20080;-51
2020/12/06 02:49:14;;;;;;;31.83;18.42;;;1.50;92.10;;;;;;5015365;28;20045;-52
2020/12/06 02:51:40;;;;;;;28.08;17.85;;;1.50;91.90;;;;;;5012986;28;20050;-52
2020/12/06 02:54:27;;;;;;;29.23;18.63;;;1.50;92.00;;;;;;5001119;28;20041;-51
2020/12/06 02:56:52;;;;;;;30.27;18.27;;;1.40;92.00;;;;;;5022697;28;20042;-50
2020/12/06 02:59:18;;;;;;;29.13;17.63;;;1.50;92.00;;;;;;5018749;28;20405;-50
2020/12/06 03:01:43;;;;;;;30.55;18.73;;;1.50;92.10;;;;;;5003511;28;20037;-52
2020/12/06 03:04:09;;;;;;;26.30;17.67;;;1.50;92.10;;;;;;5011572;28;20073;-51
2020/12/06 03:06:35;;;;;;;31.33;18.38;;;1.50;92.10;;;;;;5015421;28;20034;-50
2020/12/06 03:09:00;;;;;;;26.33;18.27;;;1.60;92.20;;;;;;5015349;28;20049;-51
2020/12/06 03:11:46;;;;;;;25.83;17.70;;;1.60;92.10;;;;;;5011383;28;20046;-51
2020/12/06 03:14:12;;;;;;;29.33;17.38;;;1.60;92.10;;;;;;5011108;28;20043;-52
2020/12/06 03:16:58;;;;;;;27.98;17.90;;;1.70;92.00;;;;;;4996562;28;20088;-54
2020/12/06 03:19:23;;;;;;;29.52;17.63;;;1.70;91.80;;;;;;5010562;28;20488;-49
2020/12/06 03:21:49;;;;;;;27.30;17.60;;;1.60;91.80;;;;;;5021959;28;20053;-53
2020/12/06 03:24:14;;;;;;;32.72;17.90;;;1.60;91.70;;;;;;5021174;28;20050;-52
2020/12/06 03:26:40;;;;;;;28.02;17.92;;;1.50;91.70;;;;;;5015379;28;20040;-52
2020/12/06 03:29:05;;;;;;;30.05;18.42;;;1.50;92.00;;;;;;5028286;28;20417;-50
2020/12/06 03:31:31;;;;;;;29.20;18.00;;;1.60;92.20;;;;;;5015465;28;20046;-52
2020/12/06 03:33:57;;;;;;;29.90;17.00;;;1.60;92.10;;;;;;5009871;28;20049;-53
2020/12/06 03:36:22;;;;;;;29.38;18.20;;;1.70;91.90;;;;;;5030064;28;20413;-53
2020/12/06 03:38:48;;;;;;;27.95;17.67;;;1.70;91.70;;;;;;5033626;28;20048;-53
2020/12/06 03:41:13;;;;;;;29.83;18.38;;;1.70;91.80;;;;;;5024440;28;20053;-50
2020/12/06 03:43:59;;;;;;;27.60;17.85;;;1.70;91.80;;;;;;5006452;28;20046;-50
2020/12/06 03:46:25;;;;;;;28.30;18.10;;;1.70;91.90;;;;;;5016676;28;20509;-53
2020/12/06 03:48:50;;;;;;;27.92;17.77;;;1.70;91.90;;;;;;5013935;28;20056;-52
2020/12/06 03:51:16;;;;;;;27.33;15.88;;;1.60;91.90;;;;;;5024371;28;20069;-51
2020/12/06 03:54:01;;;;;;;28.17;17.80;;;1.70;91.80;;;;;;5007920;28;20037;-53
2020/12/06 03:56:47;;;;;;;28.30;16.50;;;1.80;91.60;;;;;;5027271;28;20052;-52
2020/12/06 03:59:32;;;;;;;28.83;16.88;;;1.90;91.60;;;;;;5011535;28;20045;-52
2020/12/06 04:01:58;;;;;;;28.65;18.52;;;1.70;91.60;;;;;;5019075;28;20038;-53
2020/12/06 04:04:24;;;;;;;30.15;18.95;;;1.70;91.80;;;;;;5033389;28;20033;-53
2020/12/06 04:06:49;;;;;;;29.70;17.60;;;1.70;91.70;;;;;;5014840;28;20052;-50
2020/12/06 04:09:15;;;;;;;30.13;18.42;;;1.70;91.80;;;;;;5020738;28;20049;-49
2020/12/06 04:11:40;;;;;;;29.38;17.70;;;1.70;91.90;;;;;;5025854;28;20060;-53
2020/12/06 04:14:06;;;;;;;27.80;18.02;;;1.60;91.90;;;;;;5023070;28;20184;-52
2020/12/06 04:16:32;;;;;;;29.88;18.77;;;1.60;91.90;;;;;;5030581;28;20752;-53
2020/12/06 04:18:58;;;;;;;29.42;18.23;;;1.60;91.80;;;;;;5031121;28;20053;-51
2020/12/06 04:21:43;;;;;;;31.20;18.77;;;1.50;91.90;;;;;;4999658;28;20395;-53
2020/12/06 04:24:12;;;;;;;29.70;18.25;;;1.60;92.00;;;;;;5014452;28;20092;-52
2020/12/06 04:26:39;;;;;;;31.33;18.10;;;1.60;92.10;;;;;;5026283;28;20049;-52
2020/12/06 04:29:25;;;;;;;31.42;18.35;;;1.50;92.20;;;;;;5000412;28;20146;-52
2020/12/06 04:31:51;;;;;;;29.77;18.05;;;1.70;92.10;;;;;;5013516;28;20145;-51
2020/12/06 04:34:16;;;;;;;33.80;18.77;;;1.60;91.90;;;;;;5013783;28;20050;-53
2020/12/06 04:36:42;;;;;;;31.38;19.10;;;1.70;91.90;;;;;;5014567;28;20042;-52
2020/12/06 04:39:07;;;;;;;29.88;18.50;;;1.60;92.10;;;;;;5025616;28;20495;-50
2020/12/06 04:41:33;;;;;;;31.27;18.55;;;1.60;92.10;;;;;;5013661;28;20188;-53
2020/12/06 04:44:19;;;;;;;30.42;18.30;;;1.60;92.20;;;;;;5002995;28;20514;-53
2020/12/06 04:46:45;;;;;;;32.33;18.08;;;1.60;92.10;;;;;;5024533;28;20107;-50
2020/12/06 04:49:45;;;;;;;30.30;18.02;;;1.70;91.90;;;;;;5013671;28;20050;-54
2020/12/06 04:52:44;;;;;;;29.45;17.55;;;1.70;91.80;;;;;;4987320;28;20141;-53
2020/12/06 04:55:12;;;;;;;29.85;18.13;;;1.70;91.90;;;;;;5028520;28;20099;-53
2020/12/06 04:57:59;;;;;;;32.13;18.60;;;1.70;91.80;;;;;;5020893;28;20050;-51
2020/12/06 05:00:36;;;;;;;29.63;17.65;;;1.70;91.80;;;;;;5023137;28;20119;-53
2020/12/06 05:03:09;;;;;;;31.95;18.75;;;1.70;91.90;;;;;;5021040;28;20049;-53
2020/12/06 05:05:55;;;;;;;28.00;18.55;;;1.70;91.80;;;;;;5001644;28;20042;-52
2020/12/06 05:08:41;;;;;;;31.02;18.52;;;1.70;91.70;;;;;;5011879;28;20049;-52
2020/12/06 05:11:07;;;;;;;30.77;19.20;;;1.60;91.60;;;;;;5013780;28;20034;-53
2020/12/06 05:13:52;;;;;;;31.25;19.42;;;1.60;91.70;;;;;;5005901;28;20465;-52
2020/12/06 05:16:20;;;;;;;32.10;19.73;;;1.60;91.70;;;;;;5014641;28;20050;-52
2020/12/06 05:18:46;;;;;;;29.35;18.65;;;1.60;91.80;;;;;;5012730;28;20054;-53
2020/12/06 05:21:12;;;;;;;31.30;19.10;;;1.60;92.00;;;;;;5022844;28;20041;-50
2020/12/06 05:23:38;;;;;;;33.90;20.33;;;1.60;91.70;;;;;;5026316;28;20037;-52
2020/12/06 05:26:04;;;;;;;33.55;19.92;;;1.70;91.80;;;;;;5017089;28;20042;-53
2020/12/06 05:28:50;;;;;;;34.10;19.10;;;1.60;91.70;;;;;;4998265;28;20048;-53
2020/12/06 05:31:35;;;;;;;33.05;18.65;;;1.60;91.70;;;;;;5009520;28;20045;-53
2020/12/06 05:34:01;;;;;;;32.30;18.63;;;1.60;91.70;;;;;;5018352;28;20037;-49
2020/12/06 05:36:26;;;;;;;32.47;19.05;;;1.50;91.80;;;;;;5026982;28;20041;-50
2020/12/06 05:39:12;;;;;;;30.73;18.65;;;1.50;91.70;;;;;;5001562;28;20041;-52
2020/12/06 05:41:37;;;;;;;36.03;20.95;;;1.60;91.70;;;;;;5021164;28;20041;-48
2020/12/06 05:44:06;;;;;;;33.97;20.63;;;1.60;91.90;;;;;;5016281;28;20505;-49
2020/12/06 05:46:34;;;;;;;35.20;19.70;;;1.60;91.90;;;;;;5019783;28;20041;-50
2020/12/06 05:49:02;;;;;;;36.50;20.88;;;1.70;91.80;;;;;;5014831;28;20041;-50
2020/12/06 05:51:28;;;;;;;30.25;17.52;;;1.70;91.80;;;;;;5013001;28;20517;-53
2020/12/06 05:53:56;;;;;;;35.20;20.23;;;1.80;91.80;;;;;;5008783;28;20073;-50
2020/12/06 05:56:43;;;;;;;33.20;19.33;;;1.80;91.80;;;;;;5007695;28;20038;-48
2020/12/06 05:59:10;;;;;;;38.17;21.25;;;1.70;91.80;;;;;;5025870;28;20045;-48
2020/12/06 06:01:36;;;;;;;37.53;21.35;;;1.70;91.80;;;;;;5013541;28;20148;-49
2020/12/06 06:04:04;;;;;;;31.98;18.40;;;1.70;92.00;;;;;;5020401;28;20129;-49
2020/12/06 06:06:52;;;;;;;33.60;17.88;;;1.80;92.10;;;;;;5000949;28;20410;-48
2020/12/06 06:09:19;;;;;;;34.72;21.58;;;1.90;91.80;;;;;;5026209;28;20045;-50
2020/12/06 06:12:10;;;;;;;36.70;21.80;;;1.90;91.70;;;;;;5021814;28;20066;-49
2020/12/06 06:14:37;;;;;;;36.67;21.27;;;2.00;91.60;;;;;;5001176;28;20057;-51
2020/12/06 06:17:04;;;;;;;37.58;21.05;;;2.00;91.50;;;;;;5022437;28;20618;-49
2020/12/06 06:19:50;;;;;;;34.15;19.75;;;1.90;91.70;;;;;;5008122;28;20046;-49
2020/12/06 06:22:20;;;;;;;41.80;22.02;;;1.90;91.90;;;;;;5022888;28;20058;-48
2020/12/06 06:24:48;;;;;;;38.50;21.33;;;2.00;91.90;;;;;;5014493;28;20042;-49
2020/12/06 06:27:38;;;;;;;39.80;21.48;;;1.90;91.90;;;;;;5011532;28;20048;-52
2020/12/06 06:30:24;;;;;;;34.33;20.20;;;1.90;92.10;;;;;;4992696;28;20418;-49
2020/12/06 06:33:14;;;;;;;36.85;20.77;;;1.90;92.10;;;;;;5002093;28;20038;-49
2020/12/06 06:36:00;;;;;;;35.25;19.55;;;1.90;92.00;;;;;;5005974;28;20053;-51
2020/12/06 06:38:26;;;;;;;38.97;22.65;;;1.90;92.20;;;;;;5021905;28;20461;-50
2020/12/06 06:41:14;;;;;;;39.35;21.20;;;1.90;92.10;;;;;;5010019;28;20154;-48
2020/12/06 06:44:01;;;;;;;38.45;22.38;;;1.90;92.10;;;;;;5019042;28;20045;-48
2020/12/06 06:46:50;;;;;;;37.92;22.02;;;1.90;92.20;;;;;;5007702;28;20042;-48
2020/12/06 06:49:55;;;;;;;38.75;22.45;;;1.90;92.20;;;;;;5006859;28;20045;-48
2020/12/06 06:52:42;;;;;;;38.38;22.90;;;2.00;92.20;;;;;;5013820;28;20053;-51
2020/12/06 06:55:55;;;;;;;37.22;21.73;;;2.00;92.10;;;;;;5004870;28;20681;-49
2020/12/06 06:58:27;;;;;;;39.78;22.20;;;2.00;92.20;;;;;;5011065;28;20506;-50
2020/12/06 07:01:19;;;;;;;37.65;21.67;;;2.10;92.10;;;;;;5022177;28;20565;-51
2020/12/06 07:03:47;;;;;;;38.95;22.10;;;2.10;92.00;;;;;;5017378;28;20092;-52
2020/12/06 07:06:46;;;;;;;37.03;21.45;;;2.10;92.00;;;;;;5013139;28;20041;-51
2020/12/06 07:09:20;;;;;;;36.90;21.25;;;2.00;92.00;;;;;;5021129;28;20512;-50
2020/12/06 07:12:08;;;;;;;38.53;20.75;;;2.00;92.10;;;;;;5013525;28;20099;-51
2020/12/06 07:14:34;;;;;;;36.60;21.80;;;2.10;91.90;;;;;;5017864;28;20081;-50
2020/12/06 07:16:59;;;;;;;35.55;21.13;;;2.10;92.00;;;;;;5017957;28;20033;-50
2020/12/06 07:19:25;;;;;;;38.40;20.90;;;2.10;91.80;;;;;;5019484;28;20041;-48
2020/12/06 07:21:52;;;;;;;40.33;22.20;;;2.00;92.00;;;;;;5005875;28;20068;-52
2020/12/06 07:24:38;;;;;;;38.92;21.88;;;2.00;91.80;;;;;;5005195;28;20072;-49
2020/12/06 07:27:24;;;;;;;35.28;20.75;;;2.00;92.10;;;;;;5015194;28;20143;-51
2020/12/06 07:30:12;;;;;;;38.47;21.83;;;2.00;92.10;;;;;;5012981;28;20046;-52
2020/12/06 07:32:38;;;;;;;40.15;22.77;;;2.00;91.90;;;;;;5013470;28;20124;-51
2020/12/06 07:35:07;;;;;;;37.28;22.33;;;2.00;92.00;;;;;;5026462;28;20037;-49
2020/12/06 07:37:34;;;;;;;37.05;21.40;;;2.00;92.00;;;;;;5018821;28;20486;-49
2020/12/06 07:40:06;;;;;;;39.70;21.80;;;2.00;91.80;;;;;;5015155;28;20072;-51
2020/12/06 07:42:32;;;;;;;;;;;2.00;91.90;;;;;;5002859;28;20091;-48
2020/12/06 07:44:59;;;;;;;38.58;21.52;;;2.00;91.80;;;;;;5018373;28;19924;-48
2020/12/06 07:47:26;;;;;;;37.97;22.15;;;1.90;91.90;;;;;;5026335;28;20042;-48
2020/12/06 07:49:57;;;;;;;38.20;20.02;;;1.90;91.80;;;;;;5021925;28;20145;-50
2020/12/06 07:52:42;;;;;;;38.03;21.70;;;1.90;91.90;;;;;;5010920;28;20604;-49
2020/12/06 07:55:09;;;;;;;39.88;22.83;;;1.80;92.10;;;;;;5013980;28;20061;-48
2020/12/06 07:57:38;;;;;;;37.13;22.08;;;1.80;92.20;;;;;;5022396;28;20037;-52
2020/12/06 08:00:37;;;;;;;37.75;21.77;;;1.80;92.20;;;;;;5008110;28;20545;-48
2020/12/06 08:03:04;;;;;;;41.25;22.67;;;1.90;92.20;;;;;;5014925;28;20049;-48
2020/12/06 08:05:33;;;;;;;39.97;22.73;;;1.90;92.20;;;;;;5016314;28;20053;-49
2020/12/06 08:08:22;;;;;;;38.00;21.65;;;1.90;92.00;;;;;;5013292;28;20041;-49
2020/12/06 08:11:08;;;;;;;40.80;22.38;;;2.00;92.00;;;;;;5002630;28;20050;-48
2020/12/06 08:13:55;;;;;;;41.47;21.67;;;2.00;91.90;;;;;;5013352;28;20490;-49
2020/12/06 08:16:21;;;;;;;39.53;23.33;;;2.00;92.10;;;;;;5034579;28;20053;-48
2020/12/06 08:18:57;;;;;;;40.45;22.67;;;2.00;92.20;;;;;;5025287;28;20461;-51
2020/12/06 08:21:23;;;;;;;40.72;23.48;;;2.10;92.00;;;;;;5033202;28;20046;-50
2020/12/06 08:23:49;;;;;;;38.70;21.65;;;2.10;92.00;;;;;;5031589;28;20038;-49
2020/12/06 08:26:15;;;;;;;40.40;22.48;;;2.10;92.00;;;;;;5001966;28;20100;-48
2020/12/06 08:28:41;;;;;;;42.78;23.75;;;2.10;92.00;;;;;;5026360;28;20047;-52
2020/12/06 08:31:24;;;;;;;38.15;22.55;;;2.10;92.20;;;;;;5017464;28;20045;-48
2020/12/06 08:33:49;;;;;;;41.17;23.48;;;2.10;92.10;;;;;;5024901;28;20055;-50
2020/12/06 08:36:35;;;;;;;37.85;22.98;;;2.10;92.20;;;;;;5004733;28;20414;-49
2020/12/06 08:39:01;;;;;;;42.78;23.00;;;2.20;92.30;;;;;;5028045;28;20046;-49
2020/12/06 08:41:26;;;;;;;40.17;23.35;;;2.10;92.20;;;;;;5016281;28;20498;-48
2020/12/06 08:44:05;;;;;;;42.13;23.38;;;2.20;92.20;;;;;;5015470;28;20038;-52
2020/12/06 08:46:52;;;;;;;41.22;23.30;;;2.30;92.00;;;;;;5010317;28;20099;-53
2020/12/06 08:49:23;;;;;;;39.78;22.75;;;2.30;92.00;;;;;;5016102;28;20057;-50
2020/12/06 08:52:21;;;;;;;40.58;23.83;;;2.30;92.30;;;;;;5014749;28;20072;-48
2020/12/06 08:54:50;;;;;;;43.58;24.13;;;2.40;92.00;;;;;;5020658;28;20045;-49
2020/12/06 08:57:16;;;;;;;40.83;22.77;;;2.40;92.00;;;;;;5015210;28;20045;-49
2020/12/06 08:59:43;;;;;;;43.45;23.48;;;2.30;92.00;;;;;;5015459;28;20478;-52
2020/12/06 09:02:09;;;;;;;44.92;23.90;;;2.40;92.00;;;;;;5013305;28;20426;-51
2020/12/06 09:04:36;;;;;;;43.35;23.92;;;2.40;92.00;;;;;;4999178;28;20118;-50
2020/12/06 09:07:21;;;;;;;43.13;25.17;;;2.40;92.00;;;;;;5000059;28;20437;-49
2020/12/06 09:09:47;;;;;;;47.38;26.92;;;2.40;92.10;;;;;;5022385;28;20073;-51
2020/12/06 09:12:36;;;;;;;40.85;24.40;;;2.50;92.10;;;;;;5005423;28;20042;-49
2020/12/06 09:15:06;;;;;;;40.42;23.15;;;2.60;91.90;;;;;;5013023;28;20507;-50
2020/12/06 09:17:33;;;;;;;42.95;25.35;;;2.70;91.90;;;;;;5032053;28;20112;-50
2020/12/06 09:19:59;;;;;;;41.30;22.80;;;2.70;91.90;;;;;;5033601;28;20045;-50
2020/12/06 09:22:25;;;;;;;40.30;23.17;;;2.80;91.80;;;;;;5019485;28;20053;-52
2020/12/06 09:25:10;;;;;;;43.28;25.15;;;2.80;91.80;;;;;;5004943;28;20046;-51
2020/12/06 09:27:36;;;;;;;42.78;24.02;;;2.80;91.80;;;;;;5027834;28;20092;-50
2020/12/06 09:30:02;;;;;;;44.22;26.92;;;2.80;91.80;;;;;;5018116;28;20049;-52
2020/12/06 09:32:28;;;;;;;41.78;24.10;;;2.80;91.80;;;;;;5020433;28;20069;-51
2020/12/06 09:35:14;;;;;;;38.40;22.42;;;2.90;91.90;;;;;;5013037;28;20049;-51
2020/12/06 09:37:39;;;;;;;41.90;24.92;;;3.00;91.60;;;;;;5004003;28;20056;-49
2020/12/06 09:40:05;;;;;;;40.00;22.42;;;3.10;91.30;;;;;;5026086;28;20037;-51
2020/12/06 09:42:31;;;;;;;39.80;23.15;;;3.00;91.50;;;;;;5005582;28;20049;-49
2020/12/06 09:45:16;;;;;;;36.00;21.70;;;3.10;91.40;;;;;;4999990;28;20481;-48
2020/12/06 09:47:42;;;;;;;42.22;23.20;;;3.00;91.60;;;;;;5017841;28;20034;-52
2020/12/06 09:50:07;;;;;;;40.75;24.35;;;3.10;91.50;;;;;;5022767;28;20044;-52
2020/12/06 09:52:33;;;;;;;41.38;24.08;;;3.00;91.60;;;;;;5016283;28;20053;-50
2020/12/06 09:54:59;;;;;;;34.83;22.58;;;3.00;91.60;;;;;;5016938;28;20043;-52
2020/12/06 09:57:25;;;;;;;39.95;22.73;;;3.10;91.60;;;;;;5018819;28;20041;-53
2020/12/06 10:00:10;;;;;;;40.47;23.25;;;3.10;91.70;;;;;;5008311;28;20068;-51
2020/12/06 10:02:36;;;;;;;37.50;22.80;;;3.10;91.70;;;;;;5017424;28;20413;-51
2020/12/06 10:05:02;;;;;;;40.60;24.45;;;3.10;91.70;;;;;;5020880;28;20037;-48
2020/12/06 10:07:47;;;;;;;38.72;22.55;;;3.20;91.70;;;;;;5012251;28;20041;-51
2020/12/06 10:10:13;;;;;;;42.10;24.35;;;3.30;91.50;;;;;;5012648;28;20402;-48
2020/12/06 10:12:58;;;;;;;40.92;23.48;;;3.30;91.10;;;;;;5002887;28;20534;-50
2020/12/06 10:15:45;;;;;;;40.95;24.30;;;3.40;91.10;;;;;;5003164;28;20045;-52
2020/12/06 10:18:10;;;;;;;39.17;23.67;;;3.40;91.10;;;;;;5021856;28;20038;-51
2020/12/06 10:20:56;;;;;;;42.50;27.30;;;3.90;91.40;;;;;;5007856;28;20053;-50
2020/12/06 10:23:22;;;;;;;42.85;25.50;;;3.30;91.40;;;;;;5024620;28;20045;-52
2020/12/06 10:25:48;;;;;;;40.58;25.55;;;3.40;91.50;;;;;;5014662;28;20038;-51
2020/12/06 10:28:14;;;;;;;41.70;25.42;;;3.40;91.70;;;;;;5018658;28;20053;-49
2020/12/06 10:30:39;;;;;;;42.58;25.10;;;3.40;91.50;;;;;;5015894;28;20091;-49
2020/12/06 10:33:05;;;;;;;43.20;24.60;;;3.50;91.60;;;;;;4999167;28;20441;-49
2020/12/06 10:35:31;;;;;;;42.47;25.80;;;3.60;91.30;;;;;;5018702;28;20080;-52
2020/12/06 10:38:16;;;;;;;44.78;28.42;;;3.60;91.50;;;;;;5003290;28;20042;-49
2020/12/06 10:40:42;;;;;;;42.45;26.67;;;3.60;91.40;;;;;;5006242;28;20053;-53
2020/12/06 10:43:28;;;;;;;49.40;31.38;;;3.70;91.50;;;;;;5004729;28;20037;-49
2020/12/06 10:45:54;;;;;;;44.70;27.60;;;3.70;91.40;;;;;;5014535;28;20405;-52
2020/12/06 10:48:19;;;;;;;42.10;25.60;;;3.70;91.40;;;;;;5020591;28;20046;-49
2020/12/06 10:51:05;;;;;;;42.13;25.23;;;3.80;91.30;;;;;;5002147;28;20406;-49
2020/12/06 10:53:31;;;;;;;38.85;24.33;;;3.80;91.30;;;;;;5006118;28;20041;-49
2020/12/06 10:55:56;;;;;;;43.47;23.58;;;3.90;91.40;;;;;;5016043;28;20052;-52
2020/12/06 10:58:22;;;;;;;38.67;24.75;;;4.00;91.10;;;;;;5020795;28;20041;-51
2020/12/06 11:00:47;;;;;;;49.08;30.13;;;3.90;91.10;;;;;;5021658;28;20132;-50
2020/12/06 11:03:33;;;;;;;41.05;25.02;;;4.00;91.10;;;;;;4997870;28;20096;-53
2020/12/06 11:05:58;;;;;;;52.10;36.70;;;4.00;91.00;;;;;;5013518;28;20038;-52
2020/12/06 11:08:25;;;;;;;39.33;24.42;;;4.00;90.90;;;;;;5013582;28;20042;-51
2020/12/06 11:11:13;;;;;;;37.75;22.17;;;4.00;90.90;;;;;;5003124;28;20403;-51
2020/12/06 11:13:38;;;;;;;41.28;23.33;;;4.10;90.70;;;;;;5024027;28;20505;-52
2020/12/06 11:16:04;;;;;;;43.78;28.63;;;4.30;90.70;;;;;;5026707;28;20037;-49
2020/12/06 11:18:29;;;;;;;39.72;24.60;;;4.30;90.80;;;;;;5022218;28;20175;-51
2020/12/06 11:20:55;;;;;;;42.08;25.60;;;4.30;90.90;;;;;;5020061;28;20466;-52
2020/12/06 11:23:21;;;;;;;48.85;31.23;;;4.30;91.00;;;;;;5022104;28;20180;-49
2020/12/06 11:25:46;;;;;;;42.13;27.17;;;4.40;90.70;;;;;;5020479;28;20033;-50
2020/12/06 11:28:12;;;;;;;39.55;24.88;;;4.40;91.00;;;;;;5019855;28;20257;-50
2020/12/06 11:30:39;;;;;;;48.13;29.23;;;4.30;90.80;;;;;;5021592;28;20437;-52
2020/12/06 11:33:05;;;;;;;42.03;25.75;;;4.40;91.00;;;;;;5014383;28;20064;-52
2020/12/06 11:35:31;;;;;;;52.00;29.85;;;4.50;91.00;;;;;;5025540;28;20057;-52
2020/12/06 11:37:56;;;;;;;43.38;27.30;;;4.60;90.40;;;;;;5005616;28;20037;-52
2020/12/06 11:40:22;;;;;;;57.60;33.92;;;4.60;90.60;;;;;;5020433;28;20041;-52
2020/12/06 11:42:48;;;;;;;53.08;31.45;;;4.60;90.50;;;;;;5010770;28;20551;-53
2020/12/06 11:45:13;;;;;;;42.33;25.55;;;4.60;90.40;;;;;;5015020;28;20057;-53
2020/12/06 11:47:39;;;;;;;40.55;24.40;;;4.60;90.40;;;;;;5020389;28;20416;-51
2020/12/06 11:50:07;;;;;;;39.13;25.85;;;4.60;90.50;;;;;;5016212;28;20045;-52
2020/12/06 11:52:32;;;;;;;37.55;23.95;;;4.60;90.50;;;;;;5015751;28;20120;-49
2020/12/06 11:55:18;;;;;;;48.67;30.90;;;4.60;90.60;;;;;;5006841;28;20402;-53
2020/12/06 11:58:03;;;;;;;47.63;31.85;;;4.60;90.50;;;;;;5007436;28;20049;-50
2020/12/06 12:00:29;;;;;;;55.15;39.15;;;4.50;90.70;;;;;;5022415;28;20045;-51
2020/12/06 12:02:55;;;;;;;45.40;27.85;;;4.60;90.80;;;;;;5015342;28;20045;-49
2020/12/06 12:05:20;;;;;;;41.83;25.52;;;4.60;90.80;;;;;;5023298;28;20065;-50
2020/12/06 12:07:46;;;;;;;38.65;24.08;;;4.60;90.70;;;;;;5020515;28;20414;-50
2020/12/06 12:10:12;;;;;;;39.30;24.00;;;4.60;90.60;;;;;;5017986;28;20037;-50
2020/12/06 12:12:38;;;;;;;40.40;24.63;;;4.70;90.60;;;;;;5018810;28;20034;-53
2020/12/06 12:15:07;;;;;;;38.33;24.83;;;4.70;90.40;;;;;;5015852;28;20045;-49
2020/12/06 12:17:33;;;;;;;39.35;24.35;;;4.80;90.20;;;;;;5013659;28;20049;-49
2020/12/06 12:20:00;;;;;;;37.90;23.38;;;4.70;90.30;;;;;;5019849;28;20199;-54
2020/12/06 12:22:26;;;;;;;35.78;23.38;;;4.80;90.40;;;;;;5023090;28;20445;-52
2020/12/06 12:25:12;;;;;;;40.22;24.75;;;4.70;90.60;;;;;;5000787;28;20039;-52
2020/12/06 12:27:37;;;;;;;40.58;24.33;;;4.70;90.60;;;;;;5014455;28;20124;-51
2020/12/06 12:30:04;;;;;;;36.28;23.50;;;4.70;90.60;;;;;;5032273;28;20046;-49
2020/12/06 12:32:30;;;;;;;39.42;24.88;;;4.70;90.70;;;;;;5027824;28;20064;-52
2020/12/06 12:35:16;;;;;;;38.33;24.80;;;4.70;90.80;;;;;;5008769;28;20081;-50
2020/12/06 12:37:41;;;;;;;39.85;26.65;;;4.80;90.50;;;;;;5022870;28;20512;-49
2020/12/06 12:40:27;;;;;;;37.75;22.42;;;4.80;90.50;;;;;;5004884;28;20060;-50
2020/12/06 12:42:52;;;;;;;37.17;23.70;;;4.80;90.40;;;;;;5027457;28;20041;-53
2020/12/06 12:45:38;;;;;;;38.45;22.95;;;4.80;90.50;;;;;;5004331;28;20045;-49
2020/12/06 12:48:04;;;;;;;39.28;23.88;;;4.80;90.60;;;;;;5020021;28;20049;-49
2020/12/06 12:50:29;;;;;;;37.30;24.15;;;4.80;90.60;;;;;;5021967;28;20054;-49
2020/12/06 12:53:15;;;;;;;38.85;25.70;;;4.90;90.20;;;;;;5003410;28;20046;-51
2020/12/06 12:55:41;;;;;;;40.25;24.15;;;4.90;90.40;;;;;;5021491;28;20037;-49
2020/12/06 12:58:06;;;;;;;41.25;26.67;;;5.00;90.40;;;;;;5015265;28;20050;-51
2020/12/06 13:00:32;;;;;;;58.55;41.65;;;4.90;90.40;;;;;;5006277;28;20467;-51
2020/12/06 13:02:58;;;;;;;38.63;23.45;;;4.90;90.70;;;;;;5015721;28;20120;-50
2020/12/06 13:05:23;;;;;;;38.78;23.90;;;4.90;90.80;;;;;;5027093;28;20034;-53